Time;durP1;ratioP1;P1;durP2;ratioP2;P2;SDS_P1;SDS_P2;PMS_P1;PMS_P2;Temp;Humidity;BMP_temperature;BMP_pressure;BME280_temperature;BME280_humidity;BME280_pressure;Samples;Min_cycle;Max_cycle;Signal;HPM_P1;HPM_P2
2023/07/24 00:00:59;;;;;;;;;;;;;;;33.09;23.75;97620.91;5094494;28;19946;-89
2023/07/24 00:03:25;;;;;;;;;;;;;;;33.13;23.95;97619.38;5075947;28;19916;-89
2023/07/24 00:05:51;;;;;;;;;;;;;;;33.20;23.75;97623.81;5091284;28;20303;-89
2023/07/24 00:08:17;;;;;;;;;;;;;;;33.11;23.22;97616.25;5094264;28;19920;-89
2023/07/24 00:10:43;;;;;;;;;;;;;;;33.26;23.48;97618.91;5094269;28;19923;-89
2023/07/24 00:13:09;;;;;;;;;;;;;;;33.23;24.17;97617.91;5094308;28;20329;-88
2023/07/24 00:15:35;;;;;;;;;;;;;;;33.31;23.30;97621.81;5094145;28;19916;-88
2023/07/24 00:18:01;;;;;;;;;;;;;;;33.30;23.19;97620.22;5093848;28;19920;-88
2023/07/24 00:20:27;;;;;;;;;;;;;;;33.32;23.38;97619.75;5094059;28;19916;-88
2023/07/24 00:22:53;;;;;;;;;;;;;;;33.21;23.83;97609.06;5095806;28;19916;-88
2023/07/24 00:25:19;;;;;;;;;;;;;;;33.14;24.02;97605.94;5114368;28;20371;-88
2023/07/24 00:27:45;;;;;;;;;;;;;;;33.15;23.84;97613.16;5114410;28;20002;-88
2023/07/24 00:30:11;;;;;;;;;;;;;;;33.17;23.83;97602.06;5114320;28;19968;-88
2023/07/24 00:32:37;;;;;;;;;;;;;;;33.15;24.40;97601.78;5114171;28;19916;-88
2023/07/24 00:35:03;;;;;;;;;;;;;;;33.02;24.59;97604.28;5097608;28;19924;-88
2023/07/24 00:37:29;;;;;;;;;;;;;;;32.98;24.19;97603.72;5072218;28;20326;-89
2023/07/24 00:39:55;;;;;;;;;;;;;;;33.06;23.84;97599.94;5075895;28;19934;-89
2023/07/24 00:42:21;;;;;;;;;;;;;;;33.13;24.62;97599.44;5093784;28;19916;-88
2023/07/24 00:44:47;;;;;;;;;;;;;;;33.28;23.51;97600.03;5093889;28;19922;-88
2023/07/24 00:47:13;;;;;;;;;;;;;;;33.27;24.00;97594.88;5093494;28;19916;-89
2023/07/24 00:49:40;;;;;;;;;;;;;;;33.26;23.88;97590.47;5093789;28;19916;-89
2023/07/24 00:52:07;;;;;;;;;;;;;;;33.24;23.79;97596.66;5093734;28;19912;-89
2023/07/24 00:54:34;;;;;;;;;;;;;;;33.12;24.07;97589.34;5093653;28;19969;-88
2023/07/24 00:57:00;;;;;;;;;;;;;;;32.91;24.22;97596.41;5092979;28;19944;-88
2023/07/24 00:59:27;;;;;;;;;;;;;;;32.61;24.49;97604.47;5092945;28;19916;-88
2023/07/24 01:01:53;;;;;;;;;;;;;;;32.34;24.78;97590.75;5073541;28;19917;-88
2023/07/24 01:04:19;;;;;;;;;;;;;;;32.54;24.27;97598.44;5078211;28;19919;-88
2023/07/24 01:06:45;;;;;;;;;;;;;;;32.91;24.31;97590.72;5093467;28;19931;-88
2023/07/24 01:09:11;;;;;;;;;;;;;;;32.72;25.24;97589.56;5092255;28;19916;-89
2023/07/24 01:11:46;;;;;;;;;;;;;;;32.75;24.80;97595.00;5093771;28;19941;-89
2023/07/24 01:14:32;;;;;;;;;;;;;;;32.96;24.29;97595.69;5087956;28;20023;-88
2023/07/24 01:17:00;;;;;;;;;;;;;;;32.95;24.21;97591.28;5073251;28;19926;-88
2023/07/24 01:19:46;;;;;;;;;;;;;;;32.84;24.58;97598.97;5072968;28;19920;-88
2023/07/24 01:22:31;;;;;;;;;;;;;;;32.85;25.00;97589.91;5073548;28;19995;-88
2023/07/24 01:24:56;;;;;;;;;;;;;;;32.86;24.57;97591.47;5073438;28;20322;-88
2023/07/24 01:27:26;;;;;;;;;;;;;;;32.84;24.75;97596.88;5073374;28;19916;-88
2023/07/24 01:29:52;;;;;;;;;;;;;;;32.81;24.71;97597.13;5073131;28;19916;-88
2023/07/24 01:32:18;;;;;;;;;;;;;;;32.94;25.28;97597.47;5073984;28;19921;-88
2023/07/24 01:34:46;;;;;;;;;;;;;;;32.90;24.45;97594.09;5072965;28;20372;-88
2023/07/24 01:37:12;;;;;;;;;;;;;;;33.14;24.10;97591.69;5107353;28;20018;-88
2023/07/24 01:39:40;;;;;;;;;;;;;;;33.32;23.84;97585.59;5113581;28;20387;-88
2023/07/24 01:42:06;;;;;;;;;;;;;;;33.37;25.50;97582.00;5113501;28;20387;-88
2023/07/24 01:44:32;;;;;;;;;;;;;;;33.12;25.32;97588.56;5113340;28;19961;-88
2023/07/24 01:46:58;;;;;;;;;;;;;;;33.21;24.80;97582.69;5115647;28;19996;-88
2023/07/24 01:49:24;;;;;;;;;;;;;;;33.32;24.59;97577.84;5116418;28;20371;-88
2023/07/24 01:51:50;;;;;;;;;;;;;;;33.15;24.82;97584.72;5117189;28;19957;-88
2023/07/24 01:54:16;;;;;;;;;;;;;;;33.26;24.71;97579.84;5117120;28;19951;-88
2023/07/24 01:56:43;;;;;;;;;;;;;;;33.39;24.02;97577.34;5117207;28;20002;-88
2023/07/24 01:59:09;;;;;;;;;;;;;;;33.48;24.13;97575.56;5108684;28;20407;-89
2023/07/24 02:01:35;;;;;;;;;;;;;;;33.38;25.73;97566.47;5096667;28;20015;-88
2023/07/24 02:04:01;;;;;;;;;;;;;;;33.06;25.06;97568.63;5097459;28;19944;-88
2023/07/24 02:06:27;;;;;;;;;;;;;;;32.96;25.42;97574.97;5101583;28;19964;-88
2023/07/24 02:08:53;;;;;;;;;;;;;;;32.94;25.41;97571.88;5096393;28;20351;-88
2023/07/24 02:11:19;;;;;;;;;;;;;;;33.04;25.31;97567.56;5096405;28;19912;-88
2023/07/24 02:13:46;;;;;;;;;;;;;;;33.04;25.03;97568.38;5096155;28;19955;-88
2023/07/24 02:16:12;;;;;;;;;;;;;;;33.10;24.84;97574.06;5096326;28;19912;-88
2023/07/24 02:18:42;;;;;;;;;;;;;;;33.33;25.09;97570.06;5096310;28;19928;-88
2023/07/24 02:21:09;;;;;;;;;;;;;;;33.40;24.62;97576.06;5096177;28;19920;-88
2023/07/24 02:23:35;;;;;;;;;;;;;;;33.50;24.62;97575.84;5096994;28;20378;-88
2023/07/24 02:26:01;;;;;;;;;;;;;;;33.66;24.27;97578.78;5096151;28;19920;-88
2023/07/24 02:28:27;;;;;;;;;;;;;;;33.84;24.09;97575.47;5096167;28;20324;-88
2023/07/24 02:30:57;;;;;;;;;;;;;;;33.98;24.11;97573.72;5096020;28;19916;-88
2023/07/24 02:33:23;;;;;;;;;;;;;;;33.93;24.17;97575.28;5096253;28;19916;-88
2023/07/24 02:35:51;;;;;;;;;;;;;;;33.79;24.22;97581.16;5095537;28;19999;-88
2023/07/24 02:38:18;;;;;;;;;;;;;;;33.77;24.37;97583.75;5095465;28;20127;-88
2023/07/24 02:40:45;;;;;;;;;;;;;;;33.71;24.57;97582.94;5096186;28;19923;-88
2023/07/24 02:43:11;;;;;;;;;;;;;;;33.70;24.50;97584.25;5095794;28;19995;-88
2023/07/24 02:45:37;;;;;;;;;;;;;;;33.89;24.12;97580.41;5095750;28;19966;-89
2023/07/24 02:48:03;;;;;;;;;;;;;;;33.88;25.22;97578.09;5095602;28;19991;-88
2023/07/24 02:50:29;;;;;;;;;;;;;;;33.65;26.91;97579.31;5095605;28;19923;-88
2023/07/24 02:52:55;;;;;;;;;;;;;;;33.50;26.74;97579.47;5095608;28;19962;-88
2023/07/24 02:55:21;;;;;;;;;;;;;;;33.26;26.39;97577.00;5095465;28;19916;-88
2023/07/24 02:57:47;;;;;;;;;;;;;;;33.29;26.18;97578.84;5095852;28;19961;-88
2023/07/24 03:00:14;;;;;;;;;;;;;;;33.56;25.41;97574.59;5077267;28;19947;-88
2023/07/24 03:02:40;;;;;;;;;;;;;;;33.62;25.72;97575.41;5095573;28;19920;-88
2023/07/24 03:05:06;;;;;;;;;;;;;;;33.69;25.79;97582.69;5095364;28;20390;-88
2023/07/24 03:07:32;;;;;;;;;;;;;;;33.44;26.01;97581.53;5111352;28;20291;-88
2023/07/24 03:09:58;;;;;;;;;;;;;;;33.37;25.56;97577.06;5097087;28;19926;-88
2023/07/24 03:12:24;;;;;;;;;;;;;;;33.62;25.16;97571.78;5115715;28;19947;-88
2023/07/24 03:14:50;;;;;;;;;;;;;;;33.55;25.81;97583.66;5096962;28;19956;-88
2023/07/24 03:17:16;;;;;;;;;;;;;;;33.40;25.94;97573.22;5095323;28;19957;-88
2023/07/24 03:19:42;;;;;;;;;;;;;;;33.50;25.77;97578.69;5076881;28;20376;-88
2023/07/24 03:22:08;;;;;;;;;;;;;;;33.72;26.05;97567.44;5094975;28;19966;-88
2023/07/24 03:24:35;;;;;;;;;;;;;;;33.78;26.36;97577.53;5094687;28;19919;-88
2023/07/24 03:27:01;;;;;;;;;;;;;;;33.54;26.25;97562.19;5094929;28;19946;-88
2023/07/24 03:29:27;;;;;;;;;;;;;;;33.33;25.74;97567.22;5094918;28;19955;-88
2023/07/24 03:31:53;;;;;;;;;;;;;;;33.31;26.11;97566.94;5095276;28;19916;-88
2023/07/24 03:34:19;;;;;;;;;;;;;;;33.53;25.49;97567.09;5103869;28;19960;-88
2023/07/24 03:36:45;;;;;;;;;;;;;;;33.87;25.09;97571.59;5094615;28;20022;-88
2023/07/24 03:39:11;;;;;;;;;;;;;;;33.90;25.33;97569.81;5094428;28;20335;-88
2023/07/24 03:41:41;;;;;;;;;;;;;;;33.98;25.37;97565.94;5094707;28;19912;-89
2023/07/24 03:44:07;;;;;;;;;;;;;;;34.02;25.24;97571.41;5094611;28;19923;-88
2023/07/24 03:46:33;;;;;;;;;;;;;;;34.16;25.46;97578.97;5094621;28;19970;-88
2023/07/24 03:48:59;;;;;;;;;;;;;;;34.08;25.44;97583.59;5114082;28;19922;-88
2023/07/24 03:51:25;;;;;;;;;;;;;;;34.28;25.52;97572.00;5114799;28;20018;-88
2023/07/24 03:53:51;;;;;;;;;;;;;;;34.20;25.48;97570.94;5114513;28;19998;-89
2023/07/24 03:56:17;;;;;;;;;;;;;;;34.26;25.63;97570.97;5108998;28;19923;-88
2023/07/24 03:58:44;;;;;;;;;;;;;;;34.15;26.05;97579.47;5093010;28;20345;-88
2023/07/24 04:01:10;;;;;;;;;;;;;;;34.18;25.83;97572.75;5094331;28;20399;-88
2023/07/24 04:03:36;;;;;;;;;;;;;;;34.20;25.50;97573.78;5094307;28;20000;-88
2023/07/24 04:06:03;;;;;;;;;;;;;;;34.13;25.76;97576.34;5113991;28;19972;-88
2023/07/24 04:08:28;;;;;;;;;;;;;;;34.11;25.99;97578.94;5114178;28;19928;-88
2023/07/24 04:10:57;;;;;;;;;;;;;;;34.24;25.71;97568.59;5114398;28;19923;-89
2023/07/24 04:13:23;;;;;;;;;;;;;;;34.14;26.85;97575.06;5114443;28;19916;-88
2023/07/24 04:15:50;;;;;;;;;;;;;;;33.65;27.46;97573.63;5114422;28;19968;-88
2023/07/24 04:18:16;;;;;;;;;;;;;;;33.83;26.84;97571.09;5114420;28;20006;-88
2023/07/24 04:20:42;;;;;;;;;;;;;;;34.21;26.59;97580.28;5113535;28;20408;-88
2023/07/24 04:23:08;;;;;;;;;;;;;;;34.31;26.64;97578.75;5093804;28;19920;-88
2023/07/24 04:25:34;;;;;;;;;;;;;;;34.55;26.91;97579.03;5092736;28;20407;-88
2023/07/24 04:28:00;;;;;;;;;;;;;;;34.69;26.96;97581.63;5094094;28;19962;-88
2023/07/24 04:30:26;;;;;;;;;;;;;;;34.87;26.32;97586.00;5093889;28;19923;-88
2023/07/24 04:32:52;;;;;;;;;;;;;;;34.73;26.85;97584.22;5093977;28;19948;-88
2023/07/24 04:35:18;;;;;;;;;;;;;;;34.84;26.53;97586.28;5093992;28;19920;-88
2023/07/24 04:37:44;;;;;;;;;;;;;;;34.92;27.11;97581.59;5111884;28;20299;-88
2023/07/24 04:40:10;;;;;;;;;;;;;;;34.95;26.80;97584.19;5114221;28;19915;-88
2023/07/24 04:42:36;;;;;;;;;;;;;;;35.01;26.94;97587.81;5114270;28;19922;-88
2023/07/24 04:45:03;;;;;;;;;;;;;;;35.20;27.18;97588.06;5109537;28;20471;-88
2023/07/24 04:47:28;;;;;;;;;;;;;;;35.35;28.00;97583.63;5105735;28;19924;-88
2023/07/24 04:49:55;;;;;;;;;;;;;;;35.42;28.49;97590.88;5107810;28;19950;-89
2023/07/24 04:52:21;;;;;;;;;;;;;;;35.28;28.29;97589.09;5113796;28;20436;-89
2023/07/24 04:54:47;;;;;;;;;;;;;;;35.20;28.70;97579.50;5112991;28;19919;-88
2023/07/24 04:57:13;;;;;;;;;;;;;;;35.41;28.57;97575.03;5113948;28;19976;-89
2023/07/24 04:59:39;;;;;;;;;;;;;;;35.86;28.29;97573.59;5113978;28;20447;-88
2023/07/24 05:02:05;;;;;;;;;;;;;;;36.36;28.13;97581.13;5113958;28;19915;-88
2023/07/24 05:04:31;;;;;;;;;;;;;;;36.72;28.29;97568.34;5104118;28;19916;-88
2023/07/24 05:06:57;;;;;;;;;;;;;;;36.91;27.94;97562.72;5104757;28;20042;-89
2023/07/24 05:09:23;;;;;;;;;;;;;;;36.93;27.58;97560.91;5113804;28;20391;-89
2023/07/24 05:11:49;;;;;;;;;;;;;;;37.13;28.15;97566.16;5112342;28;20002;-89
2023/07/24 05:14:15;;;;;;;;;;;;;;;37.37;27.52;97559.69;5093555;28;19922;-89
2023/07/24 05:16:41;;;;;;;;;;;;;;;37.71;27.30;97566.56;5092157;28;19916;-89
2023/07/24 05:19:07;;;;;;;;;;;;;;;38.00;27.14;97568.53;5093536;28;19920;-89
2023/07/24 05:21:33;;;;;;;;;;;;;;;38.28;27.64;97570.25;5094697;28;19923;-89
2023/07/24 05:23:59;;;;;;;;;;;;;;;38.52;26.98;97567.28;5097329;28;20272;-89
2023/07/24 05:26:25;;;;;;;;;;;;;;;38.80;26.09;97564.75;5095990;28;20019;-89
2023/07/24 05:28:52;;;;;;;;;;;;;;;39.07;25.44;97563.47;5097732;28;20375;-89
2023/07/24 05:31:18;;;;;;;;;;;;;;;39.35;24.88;97568.72;5097188;28;19924;-89
2023/07/24 05:33:44;;;;;;;;;;;;;;;39.44;24.66;97568.28;5097132;28;19916;-87
2023/07/24 05:36:10;;;;;;;;;;;;;;;39.44;24.48;97565.41;5096839;28;19974;-89
2023/07/24 05:38:36;;;;;;;;;;;;;;;39.52;25.09;97566.28;5110583;28;20018;-88
2023/07/24 05:41:03;;;;;;;;;;;;;;;39.67;25.04;97569.41;5095540;28;20359;-88
2023/07/24 05:43:30;;;;;;;;;;;;;;;39.81;23.56;97568.06;5097186;28;20299;-88
2023/07/24 05:45:56;;;;;;;;;;;;;;;39.90;23.43;97569.69;5097412;28;19926;-89
2023/07/24 05:48:23;;;;;;;;;;;;;;;40.05;23.41;97566.28;5096916;28;20025;-90
2023/07/24 05:50:49;;;;;;;;;;;;;;;40.19;23.70;97570.66;5096570;28;20361;-89
2023/07/24 05:53:15;;;;;;;;;;;;;;;40.25;22.68;97572.06;5095509;28;19922;-88
2023/07/24 05:55:42;;;;;;;;;;;;;;;40.03;22.84;97567.59;5096763;28;19923;-88
2023/07/24 05:58:08;;;;;;;;;;;;;;;40.03;23.40;97571.81;5096648;28;19973;-88
2023/07/24 06:00:36;;;;;;;;;;;;;;;39.94;23.41;97568.03;5096590;28;19923;-86
2023/07/24 06:03:02;;;;;;;;;;;;;;;39.85;23.82;97573.47;5097332;28;20291;-86
2023/07/24 06:05:28;;;;;;;;;;;;;;;39.64;23.00;97561.88;5096258;28;19928;-86
2023/07/24 06:07:54;;;;;;;;;;;;;;;39.60;23.21;97569.31;5115497;28;19926;-86
2023/07/24 06:10:20;;;;;;;;;;;;;;;39.55;22.10;97570.94;5116869;28;19916;-86
2023/07/24 06:12:47;;;;;;;;;;;;;;;39.41;23.09;97563.63;5116840;28;19962;-86
2023/07/24 06:15:13;;;;;;;;;;;;;;;39.34;23.83;97570.81;5116776;28;19915;-88
2023/07/24 06:17:39;;;;;;;;;;;;;;;39.27;23.82;97564.97;5116660;28;19916;-86
2023/07/24 06:20:06;;;;;;;;;;;;;;;39.19;23.67;97555.44;5112498;28;19916;-86
2023/07/24 06:22:32;;;;;;;;;;;;;;;39.56;23.06;97558.09;5096117;28;19953;-85
2023/07/24 06:24:58;;;;;;;;;;;;;;;39.73;23.27;97561.44;5096255;28;19916;-86
2023/07/24 06:27:24;;;;;;;;;;;;;;;39.80;22.91;97557.88;5096280;28;19916;-85
2023/07/24 06:29:50;;;;;;;;;;;;;;;39.99;24.28;97564.25;5096294;28;19962;-86
2023/07/24 06:32:16;;;;;;;;;;;;;;;39.25;23.05;97559.00;5095575;28;20288;-84
2023/07/24 10:51:55;;;;;;;;;;;;;;;40.14;21.50;97421.97;5152729;27;19915;-89
2023/07/24 10:54:22;;;;;;;;;;;;;;;40.39;20.55;97418.19;5152566;27;19924;-89
2023/07/24 10:56:48;;;;;;;;;;;;;;;40.52;21.50;97409.47;5150160;27;20325;-90
2023/07/24 10:59:14;;;;;;;;;;;;;;;40.67;20.22;97414.56;5134490;27;19951;-90
2023/07/24 11:01:40;;;;;;;;;;;;;;;40.55;19.68;97398.94;5131735;27;20403;-89
2023/07/24 11:04:07;;;;;;;;;;;;;;;40.53;22.18;97398.75;5131805;27;19949;-89
2023/07/24 11:06:33;;;;;;;;;;;;;;;40.75;22.28;97403.13;5131726;27;19957;-89
2023/07/24 11:09:00;;;;;;;;;;;;;;;41.04;22.87;97399.66;5131644;27;19995;-90
2023/07/24 11:11:33;;;;;;;;;;;;;;;41.10;23.19;97399.53;5145120;27;19960;-90
2023/07/24 11:14:01;;;;;;;;;;;;;;;41.22;20.13;97394.94;5148540;27;19960;-89
2023/07/24 11:16:27;;;;;;;;;;;;;;;41.29;20.75;97397.13;5131547;27;19947;-90
2023/07/24 11:18:54;;;;;;;;;;;;;;;41.48;19.74;97399.69;5131498;27;19923;-90
2023/07/24 11:21:20;;;;;;;;;;;;;;;41.45;19.99;97403.75;5131162;27;20039;-90
2023/07/24 11:23:49;;;;;;;;;;;;;;;41.46;20.13;97408.16;5131452;27;20011;-90
2023/07/24 11:26:18;;;;;;;;;;;;;;;41.43;19.41;97410.06;5131291;27;19966;-89
2023/07/24 11:28:44;;;;;;;;;;;;;;;41.18;18.58;97398.22;5131279;27;20360;-89
2023/07/24 11:31:11;;;;;;;;;;;;;;;41.20;20.09;97398.41;5131818;27;19950;-90
2023/07/24 11:33:37;;;;;;;;;;;;;;;41.57;20.06;97394.16;5131392;27;19957;-89
2023/07/24 11:36:04;;;;;;;;;;;;;;;42.06;19.49;97387.38;5138977;27;20363;-90
2023/07/24 11:38:30;;;;;;;;;;;;;;;41.83;19.00;97387.31;5151523;27;19975;-88
2023/07/24 11:40:56;;;;;;;;;;;;;;;41.36;18.24;97378.34;5149361;27;20386;-87
2023/07/24 11:43:23;;;;;;;;;;;;;;;41.15;19.83;97384.16;5134777;27;19967;-87
2023/07/24 11:45:53;;;;;;;;;;;;;;;41.21;19.29;97376.13;5130993;27;19916;-88
2023/07/24 11:48:21;;;;;;;;;;;;;;;41.48;18.96;97370.88;5141397;27;19919;-88
2023/07/24 11:50:48;;;;;;;;;;;;;;;41.48;19.59;97367.97;5149904;27;19930;-88
2023/07/24 11:53:21;;;;;;;;;;;;;;;41.70;20.48;97370.19;5137226;27;19923;-88
2023/07/24 11:55:48;;;;;;;;;;;;;;;41.64;20.58;97366.72;5137536;27;20013;-88
2023/07/24 11:58:15;;;;;;;;;;;;;;;41.79;20.83;97360.97;5137729;27;20002;-88
2023/07/24 12:00:41;;;;;;;;;;;;;;;42.09;18.69;97366.03;5122593;27;20288;-88
2023/07/24 12:03:08;;;;;;;;;;;;;;;42.31;19.77;97365.28;5116956;28;19916;-89
2023/07/24 12:05:37;;;;;;;;;;;;;;;42.38;18.42;97355.84;5117435;27;20402;-88
2023/07/24 12:08:03;;;;;;;;;;;;;;;42.62;17.82;97350.25;5115406;28;19927;-88
2023/07/24 12:10:29;;;;;;;;;;;;;;;42.38;18.55;97347.19;5116717;28;19912;-88
2023/07/24 12:12:58;;;;;;;;;;;;;;;42.24;17.78;97349.53;5116933;28;20014;-88
2023/07/24 12:15:24;;;;;;;;;;;;;;;42.17;18.65;97332.97;5116675;28;19923;-88
2023/07/24 12:17:50;;;;;;;;;;;;;;;42.22;19.59;97329.09;5116924;28;19946;-88
2023/07/24 12:20:16;;;;;;;;;;;;;;;42.18;19.04;97331.63;5116371;28;19934;-88
2023/07/24 12:22:42;;;;;;;;;;;;;;;42.28;18.42;97321.03;5116870;27;19915;-87
2023/07/24 12:25:08;;;;;;;;;;;;;;;42.49;18.82;97312.94;5116605;28;19947;-87
2023/07/24 12:27:34;;;;;;;;;;;;;;;42.62;21.50;97309.84;5116487;28;20338;-88
2023/07/24 12:30:01;;;;;;;;;;;;;;;42.40;20.83;97307.75;5116387;28;19923;-88
2023/07/24 12:32:27;;;;;;;;;;;;;;;42.52;17.99;97302.38;5116450;28;19920;-87
2023/07/24 12:34:53;;;;;;;;;;;;;;;42.19;19.10;97295.66;5116209;28;19976;-88
2023/07/24 12:37:19;;;;;;;;;;;;;;;42.32;18.14;97297.53;5134719;27;20002;-88
2023/07/24 12:39:46;;;;;;;;;;;;;;;42.17;17.54;97286.81;5125821;27;20031;-87
2023/07/24 12:42:13;;;;;;;;;;;;;;;42.49;17.67;97284.06;5116105;28;20375;-87
2023/07/24 12:44:39;;;;;;;;;;;;;;;42.47;17.17;97286.75;5116055;27;19916;-88
2023/07/24 12:47:05;;;;;;;;;;;;;;;42.30;19.02;97280.81;5116349;28;19915;-88
2023/07/24 12:49:31;;;;;;;;;;;;;;;41.86;20.73;97283.13;5114575;28;19989;-87
2023/07/24 12:51:57;;;;;;;;;;;;;;;41.53;22.35;97281.34;5116019;28;19930;-88
2023/07/24 12:54:23;;;;;;;;;;;;;;;40.98;22.97;97268.69;5115964;28;19915;-88
2023/07/24 12:56:50;;;;;;;;;;;;;;;40.68;23.82;97267.16;5116430;27;20010;-88
2023/07/24 12:59:17;;;;;;;;;;;;;;;40.87;24.75;97272.66;5116035;28;19924;-88
2023/07/24 13:01:44;;;;;;;;;;;;;;;41.20;23.06;97265.09;5115706;28;19923;-88
2023/07/24 13:04:10;;;;;;;;;;;;;;;40.85;24.90;97258.06;5114703;28;19916;-88
2023/07/24 13:06:36;;;;;;;;;;;;;;;40.47;24.38;97251.34;5114288;28;19947;-88
2023/07/24 13:09:02;;;;;;;;;;;;;;;40.45;25.28;97245.38;5115857;28;19916;-88
2023/07/24 13:11:29;;;;;;;;;;;;;;;40.48;26.29;97238.47;5115560;28;19923;-88
2023/07/24 13:13:55;;;;;;;;;;;;;;;40.49;25.45;97228.53;5116187;27;19920;-88
2023/07/24 13:16:21;;;;;;;;;;;;;;;40.71;24.32;97239.34;5115583;28;20380;-88
2023/07/24 13:18:47;;;;;;;;;;;;;;;40.99;24.65;97233.53;5115604;28;20009;-88
2023/07/24 13:21:14;;;;;;;;;;;;;;;41.09;24.35;97211.50;5115021;28;20406;-88
2023/07/24 13:23:40;;;;;;;;;;;;;;;40.89;23.59;97218.13;5115856;28;19947;-88
2023/07/24 13:26:08;;;;;;;;;;;;;;;40.90;24.04;97211.06;5115473;28;20366;-88
2023/07/24 13:28:34;;;;;;;;;;;;;;;41.23;22.04;97209.97;5115638;28;19915;-89
2023/07/24 13:31:10;;;;;;;;;;;;;;;40.65;21.04;97204.22;5115873;27;19916;-89
2023/07/24 13:33:36;;;;;;;;;;;;;;;40.81;20.35;97200.06;5115644;28;20015;-89
2023/07/24 13:36:02;;;;;;;;;;;;;;;41.14;20.76;97196.13;5122820;27;20032;-88
2023/07/24 13:38:28;;;;;;;;;;;;;;;41.21;20.61;97188.84;5135759;27;19920;-88
2023/07/24 13:40:54;;;;;;;;;;;;;;;41.36;20.05;97194.63;5135454;27;20295;-89
2023/07/24 13:43:20;;;;;;;;;;;;;;;41.31;21.15;97184.09;5135531;27;19922;-89
2023/07/24 13:45:46;;;;;;;;;;;;;;;41.28;21.40;97177.38;5134180;27;19919;-88
2023/07/24 13:48:12;;;;;;;;;;;;;;;41.34;21.91;97175.06;5121291;27;19916;-89
2023/07/24 13:50:38;;;;;;;;;;;;;;;41.26;22.58;97167.72;5114394;28;19924;-89
2023/07/24 13:53:05;;;;;;;;;;;;;;;41.09;22.48;97168.28;5114792;28;19916;-89
2023/07/24 13:55:31;;;;;;;;;;;;;;;40.96;23.20;97159.03;5115002;28;19912;-89
2023/07/24 13:57:57;;;;;;;;;;;;;;;40.89;23.38;97149.03;5114934;28;20292;-89
2023/07/24 14:00:23;;;;;;;;;;;;;;;40.80;25.18;97135.16;5114790;28;19916;-89
2023/07/24 14:02:49;;;;;;;;;;;;;;;40.48;23.99;97135.66;5115619;28;19919;-89
2023/07/24 14:05:15;;;;;;;;;;;;;;;40.24;24.36;97129.59;5115073;28;19938;-89
2023/07/24 14:07:42;;;;;;;;;;;;;;;40.36;24.75;97122.13;5114623;28;19916;-89
2023/07/24 14:10:08;;;;;;;;;;;;;;;40.43;24.51;97118.50;5114832;28;20002;-91
2023/07/24 14:12:34;;;;;;;;;;;;;;;40.55;24.00;97113.97;5114443;28;20444;-88
2023/07/24 14:15:00;;;;;;;;;;;;;;;40.76;23.83;97103.09;5114286;28;20396;-89
2023/07/24 14:17:26;;;;;;;;;;;;;;;40.76;23.28;97111.72;5115493;27;19923;-89
2023/07/24 14:19:52;;;;;;;;;;;;;;;40.72;23.33;97114.22;5114100;28;19924;-88
2023/07/24 14:22:18;;;;;;;;;;;;;;;40.79;21.71;97109.81;5129129;27;19915;-89
2023/07/24 14:24:45;;;;;;;;;;;;;;;40.81;22.34;97107.13;5134941;27;20275;-89
2023/07/24 14:27:12;;;;;;;;;;;;;;;40.37;22.54;97104.31;5134903;27;19916;-90
2023/07/24 14:29:38;;;;;;;;;;;;;;;40.73;22.51;97112.13;5135174;27;20317;-89
2023/07/24 14:32:05;;;;;;;;;;;;;;;40.84;21.85;97100.25;5119770;27;19999;-89
2023/07/24 14:34:31;;;;;;;;;;;;;;;41.04;22.43;97102.19;5114065;28;19923;-89
2023/07/24 14:36:57;;;;;;;;;;;;;;;40.62;23.68;97099.63;5114083;28;19916;-90
2023/07/24 14:39:23;;;;;;;;;;;;;;;40.42;22.49;97097.63;5130186;28;19963;-89
2023/07/24 14:41:49;;;;;;;;;;;;;;;40.35;21.53;97098.38;5134928;28;19915;-89
2023/07/24 14:44:15;;;;;;;;;;;;;;;40.45;22.45;97089.97;5134920;27;19942;-90
2023/07/24 14:46:41;;;;;;;;;;;;;;;39.95;22.86;97077.06;5134552;28;20384;-90
2023/07/24 14:49:07;;;;;;;;;;;;;;;40.17;23.12;97079.28;5134311;28;19923;-90
2023/07/24 14:51:33;;;;;;;;;;;;;;;40.13;23.37;97075.25;5134280;28;19949;-90
2023/07/24 14:53:59;;;;;;;;;;;;;;;40.62;23.20;97073.72;5134521;28;19916;-90
2023/07/24 14:56:25;;;;;;;;;;;;;;;40.92;22.99;97075.88;5133623;28;19918;-89
2023/07/24 14:58:51;;;;;;;;;;;;;;;41.03;22.66;97066.13;5134523;28;19916;-90
2023/07/24 15:01:17;;;;;;;;;;;;;;;40.53;22.13;97057.00;5134332;28;20293;-91
2023/07/24 15:03:43;;;;;;;;;;;;;;;40.41;22.73;97063.66;5134275;27;19915;-90
2023/07/24 15:06:09;;;;;;;;;;;;;;;40.53;22.27;97047.59;5134674;28;19915;-90
2023/07/24 15:08:35;;;;;;;;;;;;;;;39.90;23.36;97040.63;5134307;28;20376;-90
2023/07/24 15:11:01;;;;;;;;;;;;;;;40.03;23.59;97046.25;5134404;28;19915;-88
2023/07/24 15:13:27;;;;;;;;;;;;;;;39.69;23.24;97034.19;5133483;28;19915;-90
2023/07/24 15:15:54;;;;;;;;;;;;;;;39.97;22.42;97022.63;5134342;27;19941;-90
2023/07/24 15:18:20;;;;;;;;;;;;;;;40.12;23.01;97024.81;5134469;28;20025;-91
2023/07/24 15:20:46;;;;;;;;;;;;;;;39.93;23.85;97020.09;5113643;28;19920;-89
2023/07/24 15:23:13;;;;;;;;;;;;;;;39.88;22.82;97011.66;5113959;28;19927;-90
2023/07/24 15:25:39;;;;;;;;;;;;;;;40.14;23.10;97004.88;5114163;28;19938;-90
2023/07/24 15:28:05;;;;;;;;;;;;;;;40.18;22.99;97005.28;5117304;28;20384;-89
2023/07/24 15:30:31;;;;;;;;;;;;;;;39.87;24.17;96999.41;5132786;27;19954;-90
2023/07/24 15:32:57;;;;;;;;;;;;;;;39.42;24.03;96986.91;5138178;27;19915;-90
2023/07/24 15:35:23;;;;;;;;;;;;;;;39.68;24.47;96980.91;5136791;27;19927;-89
2023/07/24 15:37:49;;;;;;;;;;;;;;;40.00;24.26;96963.97;5137895;27;19915;-89
2023/07/24 15:40:15;;;;;;;;;;;;;;;40.40;23.43;96962.16;5137724;27;19968;-89
2023/07/24 15:42:41;;;;;;;;;;;;;;;40.51;24.71;96958.97;5136648;27;19968;-89
2023/07/24 15:45:08;;;;;;;;;;;;;;;40.94;22.45;96965.91;5137436;27;20322;-90
2023/07/24 15:47:34;;;;;;;;;;;;;;;41.24;22.68;96960.09;5136817;27;19945;-91
2023/07/24 15:50:02;;;;;;;;;;;;;;;41.20;22.36;96957.56;5137392;27;19924;-90
2023/07/24 15:52:28;;;;;;;;;;;;;;;41.01;24.73;96956.47;5137857;27;19941;-90
2023/07/24 15:54:54;;;;;;;;;;;;;;;41.13;25.37;96955.47;5137648;27;20435;-89
2023/07/24 15:57:20;;;;;;;;;;;;;;;41.50;23.19;96959.63;5137500;27;19951;-89
2023/07/24 15:59:46;;;;;;;;;;;;;;;41.65;22.15;96958.81;5137244;27;19930;-90
2023/07/24 16:02:12;;;;;;;;;;;;;;;41.53;23.15;96963.47;5137494;27;19915;-90
2023/07/24 16:04:38;;;;;;;;;;;;;;;41.34;24.25;96958.16;5136730;27;20355;-90
2023/07/24 16:07:04;;;;;;;;;;;;;;;40.96;25.58;96952.41;5137399;27;19916;-90
2023/07/24 16:09:31;;;;;;;;;;;;;;;40.66;24.81;96952.41;5137515;27;19911;-91
2023/07/24 16:11:57;;;;;;;;;;;;;;;41.03;26.03;96951.66;5137181;27;20002;-91
2023/07/24 16:14:23;;;;;;;;;;;;;;;40.86;23.79;96948.63;5135996;27;19958;-92
2023/07/24 16:16:49;;;;;;;;;;;;;;;40.55;25.31;96944.94;5137195;27;19925;-92
2023/07/24 16:19:19;;;;;;;;;;;;;;;40.33;25.96;96950.66;5129208;27;20443;-91
2023/07/24 16:21:46;;;;;;;;;;;;;;;40.06;26.88;96947.34;5117044;27;19927;-92
2023/07/24 16:24:13;;;;;;;;;;;;;;;39.64;27.54;96949.66;5116478;27;19916;-91
2023/07/24 16:26:39;;;;;;;;;;;;;;;39.41;27.12;96945.91;5116528;28;19916;-92
2023/07/24 16:29:05;;;;;;;;;;;;;;;39.35;27.85;96946.06;5116304;28;19949;-91
2023/07/24 16:31:32;;;;;;;;;;;;;;;39.54;27.78;96942.88;5116572;28;19922;-91
2023/07/24 16:33:58;;;;;;;;;;;;;;;39.96;25.39;96940.56;5116405;28;19976;-91
2023/07/24 16:36:24;;;;;;;;;;;;;;;39.91;25.71;96932.91;5116559;28;20300;-91
2023/07/24 16:38:50;;;;;;;;;;;;;;;39.84;24.24;96934.41;5116591;27;20323;-92
2023/07/24 16:41:17;;;;;;;;;;;;;;;39.43;25.47;96925.97;5115920;28;20400;-91
2023/07/24 16:43:43;;;;;;;;;;;;;;;39.57;26.17;96921.63;5116267;28;20014;-91
2023/07/24 16:46:09;;;;;;;;;;;;;;;39.55;25.66;96921.44;5116276;28;19969;-91
2023/07/24 16:48:35;;;;;;;;;;;;;;;39.70;25.83;96923.66;5115974;28;19919;-91
2023/07/24 16:51:01;;;;;;;;;;;;;;;39.61;25.16;96919.19;5115751;28;19931;-91
2023/07/24 16:53:27;;;;;;;;;;;;;;;39.64;25.83;96906.56;5116013;28;19915;-91
2023/07/24 16:55:53;;;;;;;;;;;;;;;39.92;25.42;96915.06;5135495;27;20375;-91
2023/07/24 16:58:19;;;;;;;;;;;;;;;39.67;25.79;96919.03;5136111;27;19923;-91
2023/07/24 17:00:45;;;;;;;;;;;;;;;39.38;26.45;96916.19;5136171;27;19923;-91